createdAt,value
2022-11-05T00:01:58.504Z,23.77
2022-11-05T00:04:43.562Z,22.73
2022-11-05T00:07:35.092Z,22.90
2022-11-05T00:10:09.465Z,20.60
2022-11-05T00:15:40.544Z,21.67
2022-11-05T00:18:07.168Z,21.58
2022-11-05T00:20:33.941Z,26.60
2022-11-05T00:23:21.160Z,26.75
2022-11-05T00:26:14.239Z,28.48
2022-11-05T00:28:43.800Z,24.42
2022-11-05T00:31:14.289Z,29.77
2022-11-05T00:33:42.777Z,30.15
2022-11-05T00:36:11.009Z,27.48
2022-11-05T00:38:37.998Z,25.00
2022-11-05T00:41:04.801Z,27.42
2022-11-05T00:43:50.097Z,24.40
2022-11-05T00:46:16.723Z,24.33
2022-11-05T00:49:01.678Z,24.17
2022-11-05T00:51:28.486Z,24.85
2022-11-05T00:53:55.078Z,27.17
2022-11-05T00:56:21.684Z,23.58
2022-11-05T00:58:48.962Z,23.80
2022-11-05T01:01:15.968Z,25.17
2022-11-05T01:03:45.137Z,23.02
2022-11-05T01:06:21.625Z,22.70
2022-11-05T01:08:48.262Z,22.42
2022-11-05T01:11:33.423Z,18.70
2022-11-05T01:14:05.653Z,20.05
2022-11-05T01:16:32.733Z,20.10
2022-11-05T01:18:59.484Z,21.67
2022-11-05T01:21:26.329Z,21.00
2022-11-05T01:23:53.795Z,21.83
2022-11-05T01:26:20.360Z,20.55
2022-11-05T01:28:54.816Z,19.83
2022-11-05T01:31:22.306Z,20.10
2022-11-05T01:33:49.838Z,19.90
2022-11-05T01:36:17.431Z,19.90
2022-11-05T01:38:44.400Z,20.52
2022-11-05T01:41:11.247Z,23.20
2022-11-05T01:43:56.570Z,22.05
2022-11-05T01:46:29.334Z,22.33
2022-11-05T01:49:03.158Z,21.85
2022-11-05T01:51:30.913Z,21.48
2022-11-05T01:54:01.706Z,20.95
2022-11-05T01:56:39.645Z,22.80
2022-11-05T01:59:38.716Z,21.75
2022-11-05T02:02:07.915Z,23.13
2022-11-05T02:04:43.018Z,24.05
2022-11-05T02:07:11.439Z,23.02
2022-11-05T02:09:52.143Z,24.05
2022-11-05T02:12:19.747Z,20.75
2022-11-05T02:14:46.407Z,22.45
2022-11-05T02:17:54.166Z,21.35
2022-11-05T02:20:51.825Z,21.27
2022-11-05T02:23:36.934Z,22.67
2022-11-05T02:26:22.400Z,19.65
2022-11-05T02:29:10.707Z,21.35
2022-11-05T02:31:49.331Z,20.17
2022-11-05T02:34:27.879Z,22.17
2022-11-05T02:37:00.474Z,20.15
2022-11-05T02:39:52.889Z,19.17
2022-11-05T02:42:42.473Z,20.30
2022-11-05T02:45:15.118Z,19.83
2022-11-05T02:47:45.457Z,18.88
2022-11-05T02:50:27.071Z,19.60
2022-11-05T02:53:02.262Z,19.48
2022-11-05T02:55:37.089Z,18.45
2022-11-05T02:58:07.463Z,17.83
2022-11-05T03:00:49.450Z,17.55
2022-11-05T03:03:18.718Z,17.70
2022-11-05T03:06:23.731Z,18.20
2022-11-05T03:09:01.594Z,16.17
2022-11-05T03:11:31.641Z,17.13
2022-11-05T03:14:10.382Z,18.90
2022-11-05T03:16:44.063Z,17.48
2022-11-05T03:19:25.867Z,18.42
2022-11-05T03:22:05.703Z,18.02
2022-11-05T03:24:39.211Z,18.23
2022-11-05T03:27:27.390Z,18.37
2022-11-05T03:30:01.181Z,18.75
2022-11-05T03:32:30.806Z,19.35
2022-11-05T03:35:02.318Z,16.85
2022-11-05T03:37:35.317Z,16.77
2022-11-05T03:40:06.290Z,17.23
2022-11-05T03:42:36.514Z,16.23
2022-11-05T03:45:14.304Z,18.58
2022-11-05T03:47:44.332Z,16.30
2022-11-05T03:50:23.194Z,16.13
2022-11-05T03:52:55.270Z,19.80
2022-11-05T03:55:33.047Z,19.27
2022-11-05T03:57:59.830Z,18.80
2022-11-05T04:00:26.478Z,17.25
2022-11-05T04:02:53.292Z,15.88
2022-11-05T04:05:19.932Z,16.50
2022-11-05T04:08:08.713Z,15.52
2022-11-05T04:10:56.241Z,18.42
2022-11-05T04:16:15.167Z,15.70
2022-11-05T04:18:42.533Z,14.95
2022-11-05T04:21:29.539Z,16.13
2022-11-05T04:24:08.641Z,15.48
2022-11-05T04:26:44.631Z,14.18
2022-11-05T04:29:29.818Z,15.40
2022-11-05T04:31:57.181Z,15.90
2022-11-05T04:34:24.228Z,16.67
2022-11-05T04:36:53.249Z,17.80
2022-11-05T04:39:20.878Z,15.68
2022-11-05T04:41:48.822Z,20.33
2022-11-05T04:44:16.853Z,16.08
2022-11-05T04:46:43.811Z,14.85
2022-11-05T04:49:10.385Z,16.33
2022-11-05T04:51:37.068Z,17.08
2022-11-05T04:54:03.819Z,15.20
2022-11-05T04:56:30.427Z,16.90
2022-11-05T04:58:57.048Z,15.82
2022-11-05T05:01:25.460Z,15.73
2022-11-05T05:03:54.053Z,17.33
2022-11-05T05:06:21.733Z,17.20
2022-11-05T05:08:50.051Z,16.92
2022-11-05T05:11:19.029Z,16.15
2022-11-05T05:13:45.745Z,15.32
2022-11-05T05:16:25.706Z,17.23
2022-11-05T05:18:53.217Z,16.83
2022-11-05T05:21:41.089Z,15.90
2022-11-05T05:24:11.365Z,16.23
2022-11-05T05:26:39.556Z,15.57
2022-11-05T05:29:06.915Z,14.60
2022-11-05T05:31:34.011Z,13.55
2022-11-05T05:34:00.671Z,13.85
2022-11-05T05:36:27.358Z,10.05
2022-11-05T05:38:53.977Z,12.98
2022-11-05T05:41:20.700Z,15.98
2022-11-05T05:43:47.694Z,15.65
2022-11-05T05:46:16.548Z,15.00
2022-11-05T05:48:43.967Z,15.10
2022-11-05T05:51:11.856Z,14.15
2022-11-05T05:53:38.824Z,17.23
2022-11-05T05:56:06.787Z,15.30
2022-11-05T05:58:36.380Z,16.10
2022-11-05T06:01:09.593Z,15.52
2022-11-05T06:03:37.730Z,14.43
2022-11-05T06:06:14.981Z,15.38
2022-11-05T06:08:45.475Z,17.50
2022-11-05T06:11:12.105Z,19.35
2022-11-05T06:13:38.770Z,14.88
2022-11-05T06:16:10.040Z,13.77
2022-11-05T06:18:37.423Z,15.93
2022-11-05T06:21:06.929Z,16.92
2022-11-05T06:23:34.886Z,15.43
2022-11-05T06:26:07.126Z,16.77
2022-11-05T06:28:34.588Z,16.67
2022-11-05T06:31:01.847Z,16.42
2022-11-05T06:33:29.274Z,16.42
2022-11-05T06:35:59.435Z,15.95
2022-11-05T06:38:26.036Z,16.20
2022-11-05T06:40:52.717Z,17.10
2022-11-05T06:43:19.340Z,16.73
2022-11-05T06:45:45.889Z,16.50
2022-11-05T06:48:12.534Z,24.20
2022-11-05T06:50:39.173Z,19.90
2022-11-05T06:53:06.231Z,17.42
2022-11-05T06:55:32.983Z,20.58
2022-11-05T06:57:59.623Z,27.35
2022-11-05T07:00:26.511Z,32.67
2022-11-05T07:02:53.223Z,67.13
2022-11-05T07:05:19.802Z,47.28
2022-11-05T07:07:46.442Z,30.52
2022-11-05T07:10:16.325Z,26.38
2022-11-05T07:12:43.666Z,41.88
2022-11-05T07:15:12.441Z,24.92
2022-11-05T07:17:40.212Z,18.60
2022-11-05T07:20:08.318Z,37.42
2022-11-05T07:22:35.621Z,34.55
2022-11-05T07:25:02.560Z,38.10
2022-11-05T07:27:29.570Z,27.17
2022-11-05T07:29:56.189Z,17.42
2022-11-05T07:32:22.878Z,18.45
2022-11-05T07:34:49.727Z,15.80
2022-11-05T07:37:28.913Z,19.33
2022-11-05T07:45:28.254Z,18.20
2022-11-05T07:48:00.738Z,19.40
2022-11-05T07:50:30.175Z,19.73
2022-11-05T07:53:04.465Z,21.33
2022-11-05T07:55:31.274Z,36.25
2022-11-05T07:57:58.596Z,19.45
2022-11-05T08:00:27.047Z,33.45
2022-11-05T08:03:07.166Z,33.70
2022-11-05T08:05:37.087Z,19.85
2022-11-05T08:08:04.386Z,19.33
2022-11-05T08:10:31.138Z,19.52
2022-11-05T08:12:57.864Z,31.80
2022-11-05T08:15:24.572Z,29.23
2022-11-05T08:17:58.661Z,42.00
2022-11-05T08:20:26.439Z,26.85
2022-11-05T08:22:53.730Z,32.38
2022-11-05T08:25:20.611Z,32.85
2022-11-05T08:27:47.344Z,25.45
2022-11-05T08:30:14.220Z,31.50
2022-11-05T08:32:40.909Z,19.20
2022-11-05T08:35:07.895Z,19.58
2022-11-05T08:37:34.538Z,21.70
2022-11-05T08:40:01.199Z,24.60
2022-11-05T08:42:27.764Z,19.17
2022-11-05T08:44:55.089Z,62.00
2022-11-05T08:47:21.835Z,176.15
2022-11-05T08:49:48.566Z,42.15
2022-11-05T08:52:15.312Z,23.70
2022-11-05T08:54:43.202Z,24.50
2022-11-05T08:57:09.853Z,19.05
2022-11-05T08:59:36.480Z,21.10
2022-11-05T09:02:03.201Z,21.67
2022-11-05T09:04:30.538Z,20.77
2022-11-05T09:06:57.180Z,21.65
2022-11-05T09:09:23.806Z,19.30
2022-11-05T09:12:11.027Z,24.30
2022-11-05T09:14:37.168Z,27.58
2022-11-05T09:17:03.818Z,20.42
2022-11-05T09:19:30.357Z,21.42
2022-11-05T09:21:59.479Z,18.60
2022-11-05T09:24:26.166Z,20.50
2022-11-05T09:26:52.832Z,20.85
2022-11-05T09:29:19.465Z,22.70
2022-11-05T09:31:46.075Z,21.20
2022-11-05T09:34:12.674Z,24.55
2022-11-05T09:36:39.407Z,23.42
2022-11-05T09:39:06.188Z,23.05
2022-11-05T09:41:37.637Z,26.00
2022-11-05T09:44:20.045Z,21.58
2022-11-05T09:46:51.253Z,27.27
2022-11-05T09:49:29.549Z,52.20
2022-11-05T09:51:58.336Z,27.38
2022-11-05T09:54:28.588Z,31.45
2022-11-05T09:56:55.862Z,24.42
2022-11-05T09:59:27.583Z,23.45
2022-11-05T10:02:13.585Z,21.95
2022-11-05T10:04:49.266Z,19.92
2022-11-05T10:07:23.207Z,17.63
2022-11-05T10:10:00.495Z,20.08
2022-11-05T10:12:53.460Z,21.77
2022-11-05T10:15:32.428Z,24.60
2022-11-05T10:18:16.947Z,25.98
2022-11-05T10:20:44.761Z,29.35
2022-11-05T10:23:17.207Z,27.92
2022-11-05T10:26:06.338Z,28.55
2022-11-05T10:28:34.457Z,30.20
2022-11-05T10:31:06.798Z,28.40
2022-11-05T10:33:45.359Z,26.45
2022-11-05T10:36:24.669Z,28.02
2022-11-05T10:38:55.854Z,27.00
2022-11-05T10:41:44.113Z,28.25
2022-11-05T10:44:28.248Z,34.38
2022-11-05T10:47:17.044Z,38.45
2022-11-05T10:50:08.761Z,22.70
2022-11-05T10:52:38.497Z,35.67
2022-11-05T10:55:21.488Z,22.13
2022-11-05T10:57:49.996Z,18.83
2022-11-05T11:00:16.729Z,19.92
2022-11-05T11:02:47.700Z,17.85
2022-11-05T11:05:25.158Z,17.88
2022-11-05T11:08:08.948Z,15.75
2022-11-05T11:10:59.006Z,15.10
2022-11-05T11:13:28.925Z,13.20
2022-11-05T11:16:14.824Z,13.43
2022-11-05T11:18:43.425Z,14.30
2022-11-05T11:21:26.289Z,15.13
2022-11-05T11:24:04.012Z,13.05
2022-11-05T11:26:40.316Z,13.32
2022-11-05T11:29:26.991Z,11.90
2022-11-05T16:30:01.336Z,38.10
2022-11-05T16:32:33.729Z,38.97
2022-11-05T16:35:05.335Z,33.70
2022-11-05T16:37:38.266Z,33.47
2022-11-05T16:40:19.062Z,34.33
2022-11-05T16:42:51.448Z,35.83
2022-11-05T16:45:24.457Z,36.58
2022-11-05T16:47:52.010Z,36.33
2022-11-05T16:50:31.619Z,27.45
2022-11-05T16:53:00.859Z,29.63
2022-11-05T16:55:27.566Z,25.80
2022-11-05T16:57:57.229Z,27.27
2022-11-05T17:00:25.148Z,26.95
2022-11-05T17:02:56.127Z,22.35
2022-11-05T17:05:30.488Z,21.92
2022-11-05T17:10:27.112Z,19.30
2022-11-05T17:12:53.995Z,20.88
2022-11-05T17:15:28.319Z,23.85
2022-11-05T17:17:55.746Z,26.63
2022-11-05T17:20:35.129Z,26.58
2022-11-05T17:23:06.639Z,24.15
2022-11-05T17:25:34.329Z,25.10
2022-11-05T17:28:01.028Z,23.90
2022-11-05T17:30:27.676Z,24.67
2022-11-05T17:32:58.677Z,24.15
2022-11-05T17:35:25.318Z,25.73
2022-11-05T17:37:51.945Z,24.83
2022-11-05T17:40:22.433Z,24.35
2022-11-05T17:42:50.306Z,20.92
2022-11-05T17:45:17.782Z,24.58
2022-11-05T17:47:44.975Z,37.55
2022-11-05T17:50:15.633Z,38.58
2022-11-05T17:52:42.753Z,41.00
2022-11-05T17:55:16.722Z,39.30
2022-11-05T17:57:45.806Z,35.20
2022-11-05T18:00:14.188Z,36.08
2022-11-05T18:02:40.931Z,40.53
2022-11-05T18:05:08.203Z,38.15
2022-11-05T18:07:34.803Z,37.55
2022-11-05T18:10:01.580Z,40.55
2022-11-05T18:12:28.170Z,37.28
2022-11-05T18:14:54.809Z,31.95
2022-11-05T18:17:27.774Z,32.33
2022-11-05T18:20:02.606Z,44.45
2022-11-05T18:22:29.722Z,43.15
2022-11-05T18:24:56.427Z,43.40
2022-11-05T18:27:27.809Z,36.53
2022-11-05T18:29:54.972Z,35.17
2022-11-05T18:32:21.680Z,27.80
2022-11-05T18:34:48.451Z,21.98
2022-11-05T18:37:17.551Z,19.38
2022-11-05T18:39:51.542Z,22.67
2022-11-05T18:42:19.629Z,34.20
2022-11-05T18:44:49.469Z,41.08
2022-11-05T18:47:19.394Z,17.33
2022-11-05T18:49:46.338Z,18.52
2022-11-05T18:52:13.312Z,24.90
2022-11-05T18:54:39.950Z,20.42
2022-11-05T18:57:08.888Z,27.58
2022-11-05T18:59:38.841Z,33.40
2022-11-05T19:02:08.165Z,23.95
2022-11-05T19:04:36.682Z,26.75
2022-11-05T19:07:11.562Z,30.75
2022-11-05T19:09:39.566Z,30.52
2022-11-05T19:12:07.473Z,38.75
2022-11-05T19:14:35.419Z,30.88
2022-11-05T19:17:03.033Z,39.22
2022-11-05T19:19:29.829Z,42.85
2022-11-05T19:21:59.127Z,37.95
2022-11-05T19:24:28.419Z,44.35
2022-11-05T19:26:58.269Z,41.58
2022-11-05T19:29:25.205Z,38.70
2022-11-05T19:31:51.908Z,34.58
2022-11-05T19:34:21.988Z,37.25
2022-11-05T19:36:48.798Z,43.40
2022-11-05T19:39:15.559Z,34.15
2022-11-05T19:41:45.572Z,39.40
2022-11-05T19:44:15.612Z,38.72
2022-11-05T19:46:44.008Z,40.40
2022-11-05T19:49:14.015Z,39.17
2022-11-05T19:51:42.924Z,36.72
2022-11-05T19:54:11.808Z,37.83
2022-11-05T19:56:38.652Z,39.42
2022-11-05T19:59:07.877Z,39.75
2022-11-05T20:01:38.760Z,36.35
2022-11-05T20:04:05.936Z,52.33
2022-11-05T20:06:38.828Z,41.53
2022-11-05T20:09:27.430Z,42.05
2022-11-05T20:11:56.479Z,35.17
2022-11-05T20:14:29.781Z,33.63
2022-11-05T20:16:58.861Z,36.35
2022-11-05T20:19:25.679Z,35.22
2022-11-05T20:21:52.456Z,34.47
2022-11-05T20:24:25.085Z,33.33
2022-11-05T20:26:56.148Z,33.80
2022-11-05T20:29:30.491Z,35.53
2022-11-05T20:32:03.785Z,42.70
2022-11-05T20:34:34.668Z,37.97
2022-11-05T20:37:04.820Z,37.67
2022-11-05T20:39:34.091Z,35.38
2022-11-05T20:42:03.419Z,32.28
2022-11-05T20:44:30.319Z,33.58
2022-11-05T20:47:00.470Z,38.38
2022-11-05T20:49:30.036Z,42.58
2022-11-05T20:51:59.542Z,34.92
2022-11-05T20:54:26.537Z,29.00
2022-11-05T20:56:53.332Z,27.98
2022-11-05T20:59:47.327Z,27.33
2022-11-05T21:02:17.595Z,27.93
2022-11-05T21:04:50.630Z,27.42
2022-11-05T21:07:20.382Z,26.25
2022-11-05T21:09:49.813Z,26.17
2022-11-05T21:12:18.355Z,22.92
2022-11-05T21:14:45.291Z,21.33
2022-11-05T21:17:14.868Z,21.65
2022-11-05T21:19:44.173Z,22.48
2022-11-05T21:22:17.785Z,24.80
2022-11-05T21:24:44.458Z,20.52
2022-11-05T21:27:14.073Z,22.50
2022-11-05T21:29:42.930Z,24.30
2022-11-05T21:32:10.091Z,27.95
2022-11-05T21:34:39.337Z,24.05
2022-11-05T21:37:06.238Z,24.55
2022-11-05T21:39:35.513Z,26.10
2022-11-05T21:42:02.159Z,25.33
2022-11-05T21:44:28.762Z,26.20
2022-11-05T21:47:03.127Z,25.02
2022-11-05T21:49:37.159Z,27.02
2022-11-05T21:52:22.662Z,25.85
2022-11-05T21:55:11.056Z,25.60
2022-11-05T21:57:56.368Z,26.73
2022-11-05T22:00:24.867Z,23.15
2022-11-05T22:02:54.041Z,24.75
2022-11-05T22:05:20.770Z,22.55
2022-11-05T22:07:49.479Z,15.40
2022-11-05T22:10:19.199Z,16.05
2022-11-05T22:12:48.225Z,14.02
2022-11-05T22:15:17.978Z,13.57
2022-11-05T22:17:47.162Z,13.82
2022-11-05T22:20:14.269Z,18.05
2022-11-05T22:22:40.899Z,13.55
2022-11-05T22:25:07.859Z,15.50
2022-11-05T22:27:36.679Z,15.70
2022-11-05T22:30:08.264Z,15.90
2022-11-05T22:32:39.037Z,17.90
2022-11-05T22:35:07.713Z,17.08
2022-11-05T22:37:34.401Z,17.13
2022-11-05T22:40:01.067Z,16.42
2022-11-05T22:42:27.849Z,16.58
2022-11-05T22:44:58.937Z,14.50
2022-11-05T22:47:28.608Z,17.10
2022-11-05T22:49:58.104Z,14.80
2022-11-05T22:52:26.996Z,15.25
2022-11-05T22:54:53.607Z,13.98
2022-11-05T22:57:20.264Z,13.18
2022-11-05T22:59:47.381Z,13.55
2022-11-05T23:02:16.100Z,12.65
2022-11-05T23:04:45.384Z,14.20
2022-11-05T23:07:35.975Z,12.90
2022-11-05T23:10:21.209Z,13.15
2022-11-05T23:12:50.719Z,13.90
2022-11-05T23:15:37.740Z,13.35
2022-11-05T23:18:28.529Z,13.13
2022-11-05T23:21:13.732Z,13.50
2022-11-05T23:23:58.603Z,14.85
2022-11-05T23:26:44.800Z,14.82
2022-11-05T23:29:13.654Z,13.27
2022-11-05T23:31:58.965Z,14.55
2022-11-05T23:34:25.690Z,14.35
2022-11-05T23:37:11.184Z,14.02
2022-11-05T23:39:42.462Z,13.90
2022-11-05T23:42:31.097Z,14.95
2022-11-05T23:45:18.996Z,14.75
2022-11-05T23:48:05.622Z,13.52
2022-11-05T23:50:39.946Z,13.75
2022-11-05T23:53:09.434Z,14.30
2022-11-05T23:55:36.449Z,12.52
2022-11-05T23:58:03.220Z,12.85
